createdAt,value
2023-01-04T00:05:15.754Z,2.96
2023-01-04T00:10:39.785Z,2.89
2023-01-04T00:16:08.437Z,2.80
2023-01-04T00:21:34.772Z,2.70
2023-01-04T00:27:05.987Z,2.68
2023-01-04T00:32:33.785Z,2.66
2023-01-04T00:37:57.876Z,2.67
2023-01-04T00:43:22.824Z,2.67
2023-01-04T00:48:50.872Z,2.66
2023-01-04T00:54:21.811Z,2.62
2023-01-04T00:59:45.802Z,2.57
2023-01-04T01:05:14.013Z,2.54
2023-01-04T01:10:37.839Z,2.58
2023-01-04T01:16:02.931Z,2.55
2023-01-04T01:21:31.803Z,2.56
2023-01-04T01:27:02.827Z,2.58
2023-01-04T01:32:27.805Z,2.56
2023-01-04T01:37:56.041Z,2.52
2023-01-04T01:43:26.818Z,2.47
2023-01-04T01:48:51.790Z,2.43
2023-01-04T01:54:23.832Z,2.52
2023-01-04T01:59:49.806Z,2.57
2023-01-04T02:05:15.811Z,2.58
2023-01-04T02:10:43.800Z,2.54
2023-01-04T02:16:19.985Z,2.54
2023-01-04T02:22:00.890Z,2.55
2023-01-04T02:27:56.831Z,2.57
2023-01-04T02:33:37.880Z,2.63
2023-01-04T02:39:12.855Z,2.69
2023-01-04T02:44:53.856Z,2.82
2023-01-04T02:50:42.836Z,3.02
2023-01-04T02:56:21.877Z,3.07
2023-01-04T03:02:08.034Z,3.10
2023-01-04T03:07:43.852Z,3.07
2023-01-04T03:13:13.872Z,3.05
2023-01-04T03:18:41.939Z,3.05
2023-01-04T03:24:31.848Z,3.07
2023-01-04T03:30:14.868Z,3.13
2023-01-04T03:35:45.855Z,3.13
2023-01-04T03:41:33.831Z,3.12
2023-01-04T03:47:15.923Z,3.13
2023-01-04T03:52:43.959Z,3.14
2023-01-04T03:58:11.885Z,3.16
2023-01-04T04:03:48.940Z,3.18
2023-01-04T04:09:12.841Z,3.24
2023-01-04T04:14:40.868Z,3.31
2023-01-04T04:20:05.909Z,3.36
2023-01-04T04:25:37.874Z,3.34
2023-01-04T04:31:05.864Z,3.37
2023-01-04T04:36:29.871Z,3.48
2023-01-04T04:41:54.955Z,3.55
2023-01-04T04:47:21.906Z,3.61
2023-01-04T04:52:54.077Z,3.72
2023-01-04T04:58:23.867Z,3.71
2023-01-04T05:03:52.047Z,3.89
2023-01-04T05:09:15.890Z,3.94
2023-01-04T05:14:40.926Z,4.09
2023-01-04T05:20:07.919Z,4.15
2023-01-04T05:25:39.874Z,4.19
2023-01-04T05:31:05.900Z,4.21
2023-01-04T05:36:32.905Z,4.28
2023-01-04T05:42:09.920Z,4.36
2023-01-04T05:47:34.141Z,4.50
2023-01-04T05:53:02.912Z,4.67
2023-01-04T05:58:27.899Z,4.99
2023-01-04T06:03:53.034Z,5.29
2023-01-04T06:09:19.948Z,5.44
2023-01-04T06:14:44.961Z,5.68
2023-01-04T06:20:08.927Z,5.77
2023-01-04T06:25:36.914Z,5.81
2023-01-04T06:31:00.949Z,5.86
2023-01-04T06:36:25.939Z,5.86
2023-01-04T06:41:52.972Z,5.78
2023-01-04T06:47:17.971Z,5.74
2023-01-04T06:52:41.959Z,5.70
2023-01-04T06:58:09.908Z,5.67
2023-01-04T07:03:33.922Z,5.66
2023-01-04T07:08:58.918Z,5.61
2023-01-04T07:14:25.984Z,5.55
2023-01-04T07:19:50.939Z,5.49
2023-01-04T07:25:14.998Z,5.45
2023-01-04T07:30:42.969Z,5.39
2023-01-04T07:36:06.936Z,5.37
2023-01-04T07:41:31.950Z,5.33
2023-01-04T07:46:58.977Z,5.30
2023-01-04T07:52:23.984Z,5.34
2023-01-04T07:57:48.006Z,5.39
2023-01-04T08:03:15.940Z,5.43
2023-01-04T08:08:39.987Z,5.44
2023-01-04T08:14:05.018Z,5.51
2023-01-04T08:19:33.955Z,5.62
2023-01-04T08:24:58.968Z,5.65
2023-01-04T08:30:24.995Z,5.71
2023-01-04T08:35:52.984Z,5.76
2023-01-04T08:41:47.127Z,5.81
2023-01-04T08:47:04.089Z,5.82
2023-01-04T08:52:30.970Z,5.83
2023-01-04T08:57:55.979Z,5.86
2023-01-04T09:03:21.083Z,6.00
2023-01-04T09:08:50.997Z,6.01
2023-01-04T09:14:20.003Z,6.08
2023-01-04T09:19:44.980Z,6.09
2023-01-04T09:25:19.045Z,6.10
2023-01-04T09:30:45.014Z,6.14
2023-01-04T09:36:09.008Z,6.16
2023-01-04T09:41:46.060Z,6.16
2023-01-04T09:47:16.991Z,6.17
2023-01-04T09:52:54.074Z,6.23
2023-01-04T09:58:32.011Z,6.25
2023-01-04T10:04:03.079Z,6.29
2023-01-04T10:09:29.018Z,6.30
2023-01-04T10:15:13.060Z,6.29
2023-01-04T10:26:56.029Z,6.27
2023-01-04T10:32:28.079Z,6.27
2023-01-04T10:37:54.041Z,6.32
2023-01-04T10:43:28.052Z,6.35
2023-01-04T10:49:02.048Z,6.41
2023-01-04T10:54:34.084Z,6.46
2023-01-04T11:00:03.084Z,6.52
2023-01-04T11:05:35.030Z,6.53
2023-01-04T11:11:04.042Z,6.58
2023-01-04T11:16:35.352Z,6.59
2023-01-04T11:22:08.084Z,6.54
2023-01-04T11:27:37.104Z,6.50
2023-01-04T11:33:08.153Z,6.45
2023-01-04T11:38:38.193Z,6.50
2023-01-04T11:44:08.249Z,6.54
2023-01-04T11:49:35.089Z,6.66
2023-01-04T11:55:03.110Z,6.74
2023-01-04T12:00:31.110Z,6.82
2023-01-04T12:05:56.112Z,6.84
2023-01-04T12:11:36.189Z,6.92
2023-01-04T12:17:14.081Z,7.00
2023-01-04T12:22:44.072Z,7.11
2023-01-04T12:28:11.074Z,7.16
2023-01-04T12:33:49.134Z,7.21
2023-01-04T12:39:17.238Z,7.27
2023-01-04T12:45:12.112Z,7.31
2023-01-04T12:50:43.730Z,7.34
2023-01-04T12:56:10.111Z,7.38
2023-01-04T13:01:42.231Z,7.44
2023-01-04T13:07:18.272Z,7.49
2023-01-04T13:13:18.091Z,7.57
2023-01-04T13:18:50.180Z,7.66
2023-01-04T13:24:17.141Z,7.76
2023-01-04T13:29:46.220Z,7.80
2023-01-04T13:35:18.122Z,7.83
2023-01-04T13:40:48.785Z,7.87
2023-01-04T13:46:30.154Z,7.82
2023-01-04T13:52:17.921Z,7.80
2023-01-04T13:57:43.153Z,7.75
2023-01-04T14:03:28.248Z,7.70
2023-01-04T14:08:57.321Z,7.70
2023-01-04T14:14:31.137Z,7.72
2023-01-04T14:20:00.173Z,7.78
2023-01-04T14:25:52.126Z,7.78
2023-01-04T14:31:43.348Z,7.68
2023-01-04T14:37:14.161Z,7.60
2023-01-04T14:42:47.206Z,7.52
2023-01-04T14:48:12.252Z,7.49
2023-01-04T14:53:36.180Z,7.53
2023-01-04T14:59:04.172Z,7.50
2023-01-04T15:04:30.175Z,7.51
2023-01-04T15:09:55.150Z,7.55
2023-01-04T15:15:24.168Z,7.60
2023-01-04T15:20:50.168Z,7.68
2023-01-04T15:26:14.195Z,7.75
2023-01-04T15:31:43.188Z,7.84
2023-01-04T15:37:08.205Z,7.91
2023-01-04T15:42:45.291Z,7.96
2023-01-04T15:48:14.388Z,8.01
2023-01-04T15:53:39.185Z,8.08
2023-01-04T15:59:07.200Z,8.16
2023-01-04T16:04:35.201Z,8.23
2023-01-04T16:09:59.242Z,8.29
2023-01-04T16:15:30.202Z,8.30
2023-01-04T16:20:59.225Z,8.35
2023-01-04T16:26:24.203Z,8.41
2023-01-04T16:31:51.248Z,8.39
2023-01-04T16:37:19.217Z,8.38
2023-01-04T16:42:43.903Z,8.38
2023-01-04T16:48:13.585Z,8.37
2023-01-04T16:53:44.394Z,8.38
2023-01-04T16:59:09.258Z,8.35
2023-01-04T17:04:35.259Z,8.38
2023-01-04T17:10:03.216Z,8.42
2023-01-04T17:15:44.678Z,8.43
2023-01-04T17:21:33.229Z,8.48
2023-01-04T17:27:00.235Z,8.53
2023-01-04T17:32:25.241Z,8.62
2023-01-04T17:37:49.249Z,8.62
2023-01-04T17:43:17.266Z,8.63
2023-01-04T17:48:41.231Z,8.68
2023-01-04T17:54:08.416Z,8.76
2023-01-04T17:59:35.249Z,8.82
2023-01-04T18:05:00.266Z,8.87
2023-01-04T18:10:40.916Z,8.84
2023-01-04T18:16:24.806Z,8.85
2023-01-04T18:21:51.287Z,8.83
2023-01-04T18:27:26.166Z,8.78
2023-01-04T18:32:54.265Z,8.78
2023-01-04T18:38:18.292Z,8.82
2023-01-04T18:44:05.280Z,8.83
2023-01-04T18:49:30.607Z,8.87
2023-01-04T18:54:55.291Z,8.91
2023-01-04T19:00:21.323Z,8.90
2023-01-04T19:05:52.299Z,8.94
2023-01-04T19:11:18.361Z,8.98
2023-01-04T19:16:43.401Z,8.98
2023-01-04T19:22:10.288Z,8.97
2023-01-04T19:27:39.032Z,9.01
2023-01-04T19:33:13.298Z,9.03
2023-01-04T19:38:41.273Z,9.04
2023-01-04T19:44:06.287Z,9.11
2023-01-04T19:49:32.508Z,9.17
2023-01-04T19:54:59.308Z,9.26
2023-01-04T20:00:25.311Z,9.31
2023-01-04T20:05:50.327Z,9.38
2023-01-04T20:11:19.296Z,9.37
2023-01-04T20:16:51.586Z,9.34
2023-01-04T20:22:17.328Z,9.31
2023-01-04T20:27:44.344Z,9.33
2023-01-04T20:33:09.363Z,9.38
2023-01-04T20:38:39.369Z,9.39
2023-01-04T20:44:07.315Z,9.38
2023-01-04T20:49:31.390Z,9.46
2023-01-04T20:54:58.344Z,9.55
2023-01-04T21:00:27.360Z,9.71
2023-01-04T21:05:54.349Z,10.01
2023-01-04T21:11:20.392Z,10.28
2023-01-04T21:16:58.086Z,10.42
2023-01-04T21:22:23.393Z,10.69
2023-01-04T21:27:47.444Z,10.99
2023-01-04T21:33:15.533Z,11.13
2023-01-04T21:38:39.405Z,11.10
2023-01-04T21:44:09.346Z,11.13
2023-01-04T21:49:36.459Z,11.24
2023-01-04T21:55:01.474Z,11.32
2023-01-04T22:00:32.351Z,11.28
2023-01-04T22:06:00.364Z,11.31
2023-01-04T22:11:24.378Z,11.27
2023-01-04T22:16:49.397Z,11.32
2023-01-04T22:22:16.364Z,11.34
2023-01-04T22:27:41.377Z,11.32
2023-01-04T22:33:05.367Z,11.32
2023-01-04T22:38:33.460Z,11.21
2023-01-04T22:43:58.382Z,11.10
2023-01-04T22:49:23.412Z,11.04
2023-01-04T22:54:50.368Z,10.95
2023-01-04T23:00:23.396Z,10.86
2023-01-04T23:05:50.423Z,10.62
2023-01-04T23:11:26.388Z,10.63
2023-01-04T23:16:52.500Z,10.39
2023-01-04T23:22:16.402Z,10.27
2023-01-04T23:27:44.380Z,10.18
2023-01-04T23:33:08.402Z,9.95
2023-01-04T23:38:33.425Z,9.85
2023-01-04T23:44:00.434Z,9.89
2023-01-04T23:49:25.423Z,9.84
2023-01-04T23:54:50.467Z,9.90
